createdAt,value
2022-11-27T00:01:36.798Z,12.60
2022-11-27T00:04:07.799Z,12.30
2022-11-27T00:06:38.260Z,11.80
2022-11-27T00:09:14.391Z,11.60
2022-11-27T00:11:44.437Z,11.20
2022-11-27T00:14:17.159Z,11.30
2022-11-27T00:16:45.672Z,12.20
2022-11-27T00:19:14.812Z,11.80
2022-11-27T00:21:43.363Z,12.30
2022-11-27T00:24:12.333Z,12.60
2022-11-27T00:26:40.709Z,12.30
2022-11-27T00:29:09.817Z,12.50
2022-11-27T00:31:38.522Z,11.90
2022-11-27T00:34:09.001Z,10.00
2022-11-27T00:36:38.687Z,12.10
2022-11-27T00:41:35.778Z,10.60
2022-11-27T00:44:05.042Z,12.20
2022-11-27T00:46:36.142Z,12.20
2022-11-27T00:49:06.442Z,11.40
2022-11-27T00:51:35.917Z,10.70
2022-11-27T00:54:05.084Z,10.60
2022-11-27T00:56:37.943Z,10.70
2022-11-27T00:59:08.326Z,10.90
2022-11-27T01:01:41.368Z,11.00
2022-11-27T01:04:16.568Z,11.20
2022-11-27T01:06:45.594Z,11.10
2022-11-27T01:09:15.394Z,11.40
2022-11-27T01:14:17.071Z,11.10
2022-11-27T01:16:45.691Z,9.70
2022-11-27T01:19:15.397Z,10.50
2022-11-27T01:24:15.130Z,11.20
2022-11-27T01:26:44.668Z,10.70
2022-11-27T01:29:13.308Z,10.90
2022-11-27T01:31:41.974Z,11.20
2022-11-27T01:34:16.729Z,11.60
2022-11-27T01:36:45.575Z,11.30
2022-11-27T01:39:20.565Z,11.20
2022-11-27T01:41:49.770Z,11.10
2022-11-27T01:44:23.997Z,11.10
2022-11-27T01:47:00.102Z,10.80
2022-11-27T01:49:37.502Z,10.20
2022-11-27T01:52:13.381Z,9.80
2022-11-27T01:55:20.487Z,8.90
2022-11-27T01:57:55.376Z,9.40
2022-11-27T02:00:25.103Z,9.10
2022-11-27T02:05:26.482Z,8.90
2022-11-27T02:07:58.065Z,8.50
2022-11-27T02:10:58.236Z,8.50
2022-11-27T02:14:00.257Z,8.00
2022-11-27T02:16:44.429Z,8.90
2022-11-27T02:19:43.595Z,7.90
2022-11-27T02:22:51.038Z,8.80
2022-11-27T02:25:40.099Z,8.70
2022-11-27T02:28:33.053Z,7.90
2022-11-27T02:31:22.658Z,9.10
2022-11-27T02:36:31.883Z,8.40
2022-11-27T02:39:10.147Z,7.50
2022-11-27T02:41:49.425Z,8.10
2022-11-27T02:44:19.745Z,7.50
2022-11-27T02:46:50.194Z,8.30
2022-11-27T02:49:20.610Z,7.80
2022-11-27T02:51:57.514Z,7.20
2022-11-27T02:54:30.700Z,7.10
2022-11-27T02:57:04.111Z,7.60
2022-11-27T02:59:34.700Z,7.60
2022-11-27T03:02:11.719Z,7.70
2022-11-27T03:04:52.257Z,8.70
2022-11-27T03:07:42.483Z,7.00
2022-11-27T03:10:34.473Z,8.40
2022-11-27T03:13:04.080Z,6.40
2022-11-27T03:15:57.278Z,6.60
2022-11-27T03:18:39.376Z,7.50
2022-11-27T03:21:35.763Z,7.50
2022-11-27T03:24:05.394Z,6.80
2022-11-27T03:26:33.985Z,7.30
2022-11-27T03:29:05.106Z,7.00
2022-11-27T03:31:33.966Z,6.60
2022-11-27T03:34:02.470Z,6.80
2022-11-27T03:36:30.982Z,6.20
2022-11-27T03:38:59.853Z,6.60
2022-11-27T03:41:58.186Z,6.90
2022-11-27T03:44:49.239Z,5.70
2022-11-27T03:47:41.723Z,5.90
2022-11-27T03:50:36.046Z,7.00
2022-11-27T03:53:42.330Z,6.90
2022-11-27T03:56:44.498Z,6.30
2022-11-27T03:59:20.568Z,5.60
2022-11-27T04:01:49.276Z,5.60
2022-11-27T04:04:18.082Z,6.00
2022-11-27T04:06:46.715Z,5.80
2022-11-27T04:09:15.229Z,5.70
2022-11-27T04:11:43.714Z,6.20
2022-11-27T04:14:12.262Z,6.80
2022-11-27T04:16:41.180Z,5.50
2022-11-27T04:19:09.767Z,5.90
2022-11-27T04:21:38.316Z,5.60
2022-11-27T04:24:07.341Z,5.70
2022-11-27T04:26:36.098Z,6.00
2022-11-27T04:29:04.679Z,6.30
2022-11-27T04:31:33.304Z,6.70
2022-11-27T04:34:01.981Z,6.00
2022-11-27T04:36:32.551Z,6.30
2022-11-27T04:39:04.745Z,5.50
2022-11-27T04:41:33.229Z,6.20
2022-11-27T04:44:01.810Z,6.10
2022-11-27T04:46:30.352Z,5.50
2022-11-27T04:48:58.909Z,6.00
2022-11-27T04:51:27.365Z,6.20
2022-11-27T04:53:56.276Z,5.80
2022-11-27T04:56:24.926Z,5.90
2022-11-27T04:58:53.413Z,6.80
2022-11-27T05:01:22.016Z,5.40
2022-11-27T05:03:50.681Z,5.30
2022-11-27T05:06:19.374Z,5.80
2022-11-27T05:08:47.845Z,6.00
2022-11-27T05:11:17.852Z,6.50
2022-11-27T05:13:47.400Z,5.40
2022-11-27T05:16:15.937Z,5.20
2022-11-27T05:18:44.635Z,4.80
2022-11-27T05:21:13.125Z,5.30
2022-11-27T05:23:41.801Z,4.40
2022-11-27T05:26:10.512Z,5.10
2022-11-27T05:28:38.940Z,4.50
2022-11-27T05:31:07.387Z,3.90
2022-11-27T05:33:35.830Z,4.50
2022-11-27T05:36:05.154Z,3.70
2022-11-27T05:38:33.545Z,3.90
2022-11-27T05:41:02.098Z,5.60
2022-11-27T05:43:30.671Z,5.40
2022-11-27T05:46:04.579Z,4.80
2022-11-27T05:48:35.548Z,5.70
2022-11-27T05:51:04.997Z,5.60
2022-11-27T05:53:33.555Z,10.20
2022-11-27T05:56:11.285Z,9.50
2022-11-27T05:58:41.157Z,8.50
2022-11-27T06:01:11.112Z,6.60
2022-11-27T06:03:39.638Z,6.90
2022-11-27T06:06:17.711Z,5.60
2022-11-27T06:08:47.677Z,6.20
2022-11-27T06:13:48.814Z,6.00
2022-11-27T06:16:24.528Z,4.90
2022-11-27T06:18:55.735Z,5.30
2022-11-27T06:21:24.499Z,5.50
2022-11-27T06:23:57.164Z,4.80
2022-11-27T06:26:31.589Z,4.90
2022-11-27T06:29:01.438Z,5.60
2022-11-27T06:31:33.449Z,5.60
2022-11-27T06:34:03.569Z,4.70
2022-11-27T06:36:35.803Z,5.00
2022-11-27T06:39:06.637Z,5.00
2022-11-27T06:41:35.076Z,5.50
2022-11-27T06:44:04.323Z,5.20
2022-11-27T06:46:32.825Z,5.60
2022-11-27T06:49:01.389Z,6.10
2022-11-27T06:51:32.137Z,6.70
2022-11-27T06:54:02.338Z,6.00
2022-11-27T06:56:32.505Z,7.50
2022-11-27T06:59:02.140Z,7.90
2022-11-27T07:04:00.613Z,9.30
2022-11-27T07:06:29.523Z,9.30
2022-11-27T07:08:58.185Z,9.90
2022-11-27T07:11:30.074Z,9.30
2022-11-27T07:14:01.962Z,9.60
2022-11-27T07:16:34.791Z,10.00
2022-11-27T07:19:08.337Z,9.70
2022-11-27T07:21:38.408Z,9.80
2022-11-27T07:24:07.819Z,9.60
2022-11-27T07:26:36.358Z,9.20
2022-11-27T07:29:04.784Z,8.30
2022-11-27T07:31:33.265Z,8.20
2022-11-27T07:34:01.839Z,8.60
2022-11-27T07:36:31.218Z,9.00
2022-11-27T07:38:59.652Z,8.80
2022-11-27T07:41:33.514Z,8.40
2022-11-27T07:44:03.424Z,7.70
2022-11-27T07:46:32.028Z,8.30
2022-11-27T07:49:00.914Z,8.60
2022-11-27T07:51:30.242Z,8.50
2022-11-27T07:54:00.520Z,8.20
2022-11-27T07:56:29.333Z,6.60
2022-11-27T07:58:58.646Z,7.30
2022-11-27T08:01:27.382Z,6.80
2022-11-27T08:03:56.155Z,6.30
2022-11-27T08:06:27.373Z,6.80
2022-11-27T08:08:58.525Z,5.80
2022-11-27T08:11:31.662Z,5.90
2022-11-27T08:14:06.005Z,5.50
2022-11-27T08:16:36.440Z,6.10
2022-11-27T08:19:04.917Z,7.00
2022-11-27T08:21:33.411Z,7.90
2022-11-27T08:24:01.836Z,7.10
2022-11-27T08:26:30.339Z,7.00
2022-11-27T08:28:58.817Z,7.60
2022-11-27T08:31:27.456Z,7.90
2022-11-27T08:33:56.147Z,7.50
2022-11-27T08:36:28.285Z,7.30
2022-11-27T08:38:56.673Z,7.50
2022-11-27T08:41:25.095Z,7.30
2022-11-27T08:43:53.536Z,8.60
2022-11-27T08:46:22.167Z,9.20
2022-11-27T08:48:50.707Z,8.70
2022-11-27T08:51:19.281Z,9.60
2022-11-27T08:53:47.729Z,11.70
2022-11-27T08:56:22.924Z,11.00
2022-11-27T08:58:52.465Z,10.40
2022-11-27T09:01:31.051Z,10.20
2022-11-27T09:04:00.354Z,8.10
2022-11-27T09:06:32.347Z,7.70
2022-11-27T09:09:03.428Z,7.30
2022-11-27T09:11:32.934Z,8.20
2022-11-27T09:14:03.140Z,9.30
2022-11-27T09:16:31.837Z,8.70
2022-11-27T09:19:00.627Z,9.60
2022-11-27T09:21:30.916Z,10.70
2022-11-27T09:24:01.533Z,10.50
2022-11-27T09:26:30.481Z,11.00
2022-11-27T09:28:59.228Z,11.20
2022-11-27T09:31:28.053Z,9.00
2022-11-27T09:33:58.785Z,8.30
2022-11-27T09:36:27.664Z,8.10
2022-11-27T09:38:56.205Z,7.80
2022-11-27T09:41:50.210Z,8.50
2022-11-27T09:44:48.561Z,9.10
2022-11-27T09:47:23.915Z,8.20
2022-11-27T09:50:06.831Z,8.20
2022-11-27T09:52:53.638Z,7.90
2022-11-27T09:55:26.013Z,9.10
2022-11-27T09:58:16.233Z,9.30
2022-11-27T10:00:46.285Z,8.60
2022-11-27T10:03:19.147Z,9.40
2022-11-27T10:06:33.456Z,9.00
2022-11-27T10:09:25.386Z,10.40
2022-11-27T10:12:34.727Z,11.00
2022-11-27T10:15:17.758Z,10.40
2022-11-27T10:18:30.574Z,10.50
2022-11-27T10:21:12.669Z,11.90
2022-11-27T10:24:18.069Z,10.30
2022-11-27T10:26:50.075Z,11.60
2022-11-27T10:29:47.049Z,11.60
2022-11-27T10:32:53.638Z,11.20
2022-11-27T10:35:18.465Z,11.10
2022-11-27T10:38:15.287Z,11.30
2022-11-27T10:40:54.634Z,11.40
2022-11-27T10:43:25.826Z,11.40
2022-11-27T10:46:43.455Z,13.10
2022-11-27T10:49:11.891Z,12.00
2022-11-27T10:51:42.088Z,12.60
2022-11-27T10:54:23.421Z,13.10
2022-11-27T10:57:13.333Z,13.20
2022-11-27T11:00:12.009Z,12.40
2022-11-27T11:02:41.470Z,12.90
2022-11-27T11:08:22.095Z,13.10
2022-11-27T11:10:50.886Z,13.10
2022-11-27T11:13:22.814Z,11.30
2022-11-27T11:15:58.213Z,14.10
2022-11-27T11:18:43.570Z,13.30
2022-11-27T11:21:41.030Z,13.60
2022-11-27T11:24:36.026Z,12.50
2022-11-27T11:27:16.418Z,12.90
2022-11-27T11:30:05.436Z,12.70
2022-11-27T11:32:37.912Z,14.20
2022-11-27T11:35:26.200Z,13.30
2022-11-27T11:37:56.530Z,14.80
2022-11-27T11:40:31.261Z,14.90
2022-11-27T11:43:10.353Z,14.30
2022-11-27T11:45:49.046Z,13.60
2022-11-27T11:48:27.653Z,13.60
2022-11-27T11:51:18.193Z,14.20
2022-11-27T11:54:14.416Z,14.20
2022-11-27T11:56:52.354Z,16.20
2022-11-27T11:59:45.288Z,14.60
2022-11-27T12:02:53.283Z,16.40
2022-11-27T12:05:33.236Z,16.20
2022-11-27T12:08:33.761Z,13.80
2022-11-27T12:11:24.057Z,16.60
2022-11-27T12:14:01.357Z,17.50
2022-11-27T12:17:00.831Z,15.80
2022-11-27T12:20:07.629Z,14.40
2022-11-27T12:23:03.658Z,14.40
2022-11-27T12:25:54.907Z,16.80
2022-11-27T12:28:59.758Z,14.60
2022-11-27T12:31:52.868Z,15.70
2022-11-27T12:34:31.290Z,15.60
2022-11-27T12:37:39.179Z,17.10
2022-11-27T12:40:26.230Z,17.00
2022-11-27T12:43:20.791Z,17.20
2022-11-27T12:46:37.848Z,18.00
2022-11-27T12:49:22.510Z,17.10
2022-11-27T12:51:59.275Z,18.80
2022-11-27T12:54:46.769Z,18.20
2022-11-27T12:57:24.097Z,19.70
2022-11-27T13:00:02.237Z,17.20
2022-11-27T13:03:41.151Z,17.40
2022-11-27T13:06:20.153Z,17.90
2022-11-27T13:09:10.624Z,18.50
2022-11-27T13:11:42.087Z,18.60
2022-11-27T13:14:24.606Z,19.60
2022-11-27T13:17:15.894Z,18.90
2022-11-27T13:19:50.545Z,19.30
2022-11-27T13:22:32.314Z,18.30
2022-11-27T13:25:02.422Z,18.10
2022-11-27T13:27:37.366Z,19.40
2022-11-27T13:30:09.353Z,18.80
2022-11-27T13:32:48.906Z,19.10
2022-11-27T13:35:42.099Z,20.30
2022-11-27T13:38:14.612Z,18.70
2022-11-27T13:40:58.749Z,19.80
2022-11-27T13:43:36.069Z,21.40
2022-11-27T13:46:22.115Z,20.40
2022-11-27T13:49:06.467Z,19.90
2022-11-27T13:51:39.067Z,20.80
2022-11-27T13:54:16.059Z,20.80
2022-11-27T13:56:44.828Z,18.00
2022-11-27T13:59:25.404Z,20.70
2022-11-27T14:02:05.508Z,20.60
2022-11-27T14:04:35.368Z,19.70
2022-11-27T14:07:10.784Z,18.90
2022-11-27T14:09:53.017Z,19.80
2022-11-27T14:12:30.300Z,20.10
2022-11-27T14:15:23.863Z,19.90
2022-11-27T14:18:06.389Z,20.20
2022-11-27T14:20:46.661Z,19.80
2022-11-27T14:23:27.375Z,17.20
2022-11-27T14:26:25.072Z,17.10
2022-11-27T14:28:56.656Z,15.10
2022-11-27T14:31:36.127Z,15.10
2022-11-27T14:36:45.351Z,15.20
2022-11-27T14:39:33.496Z,15.00
2022-11-27T14:42:10.983Z,15.40
2022-11-27T14:44:39.653Z,16.20
2022-11-27T14:47:08.595Z,14.80
2022-11-27T14:49:37.146Z,14.60
2022-11-27T14:52:13.978Z,14.70
2022-11-27T14:54:44.862Z,15.30
2022-11-27T14:57:27.210Z,16.30
2022-11-27T15:00:16.254Z,15.70
2022-11-27T15:02:47.205Z,16.40
2022-11-27T15:05:27.945Z,15.30
2022-11-27T15:08:02.196Z,16.50
2022-11-27T15:10:41.511Z,16.10
2022-11-27T15:13:26.707Z,15.40
2022-11-27T15:16:18.950Z,15.30
2022-11-27T15:19:06.165Z,16.80
2022-11-27T15:21:38.639Z,16.40
2022-11-27T15:24:32.929Z,16.20
2022-11-27T15:27:20.044Z,17.90
2022-11-27T15:29:51.597Z,16.70
2022-11-27T15:32:26.481Z,17.20
2022-11-27T15:34:55.310Z,17.80
2022-11-27T15:37:37.898Z,17.00
2022-11-27T15:40:27.310Z,17.40
2022-11-27T15:42:55.918Z,18.30
2022-11-27T15:45:28.802Z,16.80
2022-11-27T15:48:00.569Z,17.10
2022-11-27T15:50:31.154Z,17.60
2022-11-27T15:53:01.273Z,18.60
2022-11-27T15:55:29.857Z,18.60
2022-11-27T15:57:58.780Z,17.30
2022-11-27T16:00:27.432Z,16.90
2022-11-27T16:02:56.017Z,16.30
2022-11-27T16:05:24.804Z,14.40
2022-11-27T16:07:55.327Z,15.80
2022-11-27T16:10:24.530Z,17.10
2022-11-27T16:12:55.584Z,16.40
2022-11-27T16:15:27.537Z,18.10
2022-11-27T16:17:58.889Z,16.40
2022-11-27T16:20:28.079Z,14.20
2022-11-27T16:22:56.665Z,13.90
2022-11-27T16:25:25.756Z,16.10
2022-11-27T16:27:59.446Z,16.70
2022-11-27T16:30:32.177Z,18.30
2022-11-27T16:33:00.761Z,15.50
2022-11-27T16:35:30.024Z,16.40
2022-11-27T16:37:58.812Z,16.20
2022-11-27T16:40:27.784Z,15.90
2022-11-27T16:42:56.591Z,14.00
2022-11-27T16:45:25.288Z,15.40
2022-11-27T16:47:54.064Z,16.60
2022-11-27T16:50:24.090Z,15.90
2022-11-27T16:55:25.094Z,15.60
2022-11-27T16:57:55.092Z,16.10
2022-11-27T17:00:24.046Z,16.00
2022-11-27T17:02:52.638Z,14.60
2022-11-27T17:05:21.314Z,13.80
2022-11-27T17:07:50.065Z,16.10
2022-11-27T17:10:18.890Z,17.30
2022-11-27T17:12:47.453Z,16.10
2022-11-27T17:15:16.161Z,16.10
2022-11-27T17:17:45.049Z,16.70
2022-11-27T17:20:13.753Z,16.40
2022-11-27T17:22:42.323Z,15.40
2022-11-27T17:25:11.418Z,16.50
2022-11-27T17:27:40.021Z,15.50
2022-11-27T17:30:10.327Z,15.50
2022-11-27T17:35:08.170Z,14.30
2022-11-27T17:37:36.788Z,14.50
2022-11-27T17:40:06.553Z,14.20
2022-11-27T17:42:35.054Z,13.20
2022-11-27T17:45:04.892Z,13.00
2022-11-27T17:47:34.438Z,12.60
2022-11-27T17:50:02.889Z,12.50
2022-11-27T17:52:31.877Z,12.20
2022-11-27T17:55:00.539Z,11.40
2022-11-27T17:57:29.254Z,12.50
2022-11-27T17:59:57.941Z,11.70
2022-11-27T18:02:26.691Z,11.90
2022-11-27T18:04:55.500Z,13.60
2022-11-27T18:07:25.559Z,14.70
2022-11-27T18:09:54.748Z,13.40
2022-11-27T18:12:23.811Z,13.90
2022-11-27T18:14:57.935Z,13.60
2022-11-27T18:17:30.297Z,15.20
2022-11-27T18:19:59.392Z,12.10
2022-11-27T18:22:27.903Z,15.10
2022-11-27T18:24:56.452Z,14.30
2022-11-27T18:27:24.969Z,13.80
2022-11-27T18:29:53.620Z,15.00
2022-11-27T18:32:23.296Z,14.40
2022-11-27T18:37:23.762Z,12.80
2022-11-27T18:39:52.262Z,15.30
2022-11-27T18:42:21.246Z,13.10
2022-11-27T18:44:49.653Z,14.10
2022-11-27T18:47:18.215Z,14.00
2022-11-27T18:49:48.378Z,13.40
2022-11-27T18:52:17.659Z,13.80
2022-11-27T18:54:46.312Z,14.30
2022-11-27T18:57:15.073Z,14.50
2022-11-27T18:59:44.412Z,15.00
2022-11-27T19:02:13.731Z,14.20
2022-11-27T19:04:44.548Z,14.40
2022-11-27T19:07:13.311Z,13.00
2022-11-27T19:09:42.424Z,12.50
2022-11-27T19:12:12.438Z,12.60
2022-11-27T19:14:41.495Z,12.90
2022-11-27T19:17:10.226Z,13.80
2022-11-27T19:19:55.693Z,14.50
2022-11-27T19:22:24.391Z,13.20
2022-11-27T19:24:53.008Z,13.50
2022-11-27T19:27:21.562Z,13.70
2022-11-27T19:29:50.043Z,14.90
2022-11-27T19:32:19.024Z,12.40
2022-11-27T19:34:51.769Z,13.40
2022-11-27T19:37:33.673Z,13.30
2022-11-27T19:40:06.648Z,11.90
2022-11-27T19:42:35.146Z,12.80
2022-11-27T19:45:04.412Z,12.50
2022-11-27T19:47:32.843Z,12.10
2022-11-27T19:50:01.391Z,13.10
2022-11-27T19:52:30.626Z,12.00
2022-11-27T19:54:59.322Z,11.80
2022-11-27T19:57:28.646Z,12.00
2022-11-27T19:59:57.429Z,13.10
2022-11-27T20:02:26.076Z,12.70
2022-11-27T20:04:55.053Z,13.10
2022-11-27T20:07:23.615Z,13.70
2022-11-27T20:09:53.370Z,13.10
2022-11-27T20:12:21.957Z,12.70
2022-11-27T20:14:51.456Z,13.00
2022-11-27T20:17:20.117Z,14.20
2022-11-27T20:19:48.832Z,13.60
2022-11-27T20:22:17.321Z,13.50
2022-11-27T20:25:11.143Z,13.00
2022-11-27T20:27:36.726Z,13.70
2022-11-27T20:30:07.255Z,13.50
2022-11-27T20:32:35.808Z,13.60
2022-11-27T20:35:05.215Z,13.40
2022-11-27T20:37:34.214Z,13.10
2022-11-27T20:40:02.685Z,13.40
2022-11-27T20:42:31.381Z,13.60
2022-11-27T20:45:05.298Z,14.10
2022-11-27T20:47:35.945Z,13.00
2022-11-27T20:50:07.356Z,13.10
2022-11-27T20:52:35.877Z,14.30
2022-11-27T20:55:05.321Z,12.80
2022-11-27T20:57:33.938Z,14.30
2022-11-27T21:00:02.986Z,13.00
2022-11-27T21:02:31.660Z,13.60
2022-11-27T21:05:00.366Z,13.90
2022-11-27T21:07:28.963Z,12.90
2022-11-27T21:09:57.722Z,13.40
2022-11-27T21:12:26.246Z,13.80
2022-11-27T21:14:55.034Z,13.90
2022-11-27T21:17:24.029Z,13.00
2022-11-27T21:19:53.134Z,13.70
2022-11-27T21:22:21.573Z,13.20
2022-11-27T21:24:51.211Z,13.20
2022-11-27T21:29:48.477Z,12.40
2022-11-27T21:32:22.831Z,13.20
2022-11-27T21:34:51.617Z,13.20
2022-11-27T21:37:20.187Z,13.00
2022-11-27T21:39:48.657Z,13.80
2022-11-27T21:42:17.160Z,12.80
2022-11-27T21:44:45.916Z,13.00
2022-11-27T21:47:15.156Z,13.60
2022-11-27T21:49:43.798Z,12.30
2022-11-27T21:52:14.016Z,11.90
2022-11-27T21:54:42.860Z,11.00
2022-11-27T21:57:11.510Z,11.20
2022-11-27T21:59:43.061Z,12.20
2022-11-27T22:02:12.708Z,12.30
2022-11-27T22:04:41.552Z,12.30
2022-11-27T22:07:10.441Z,12.10
2022-11-27T22:09:39.049Z,12.50
2022-11-27T22:12:07.605Z,12.20
2022-11-27T22:14:35.985Z,13.80
2022-11-27T22:17:04.525Z,12.50
2022-11-27T22:19:34.798Z,12.50
2022-11-27T22:22:03.779Z,12.50
2022-11-27T22:24:33.281Z,11.90
2022-11-27T22:27:01.755Z,12.60
2022-11-27T22:29:30.345Z,12.30
2022-11-27T22:31:59.340Z,11.90
2022-11-27T22:34:27.920Z,12.70
2022-11-27T22:36:56.850Z,12.40
2022-11-27T22:39:25.498Z,11.10
2022-11-27T22:41:54.489Z,11.50
2022-11-27T22:44:23.175Z,11.40
2022-11-27T22:46:51.969Z,11.80
2022-11-27T22:49:20.853Z,12.00
2022-11-27T22:51:50.121Z,11.70
2022-11-27T22:54:19.250Z,11.80
2022-11-27T22:56:47.971Z,12.40
2022-11-27T22:59:34.002Z,11.60
2022-11-27T23:02:06.810Z,11.80
2022-11-27T23:04:38.197Z,12.70
2022-11-27T23:07:07.598Z,11.90
2022-11-27T23:09:36.263Z,12.10
2022-11-27T23:12:05.629Z,11.90
2022-11-27T23:14:34.230Z,11.30
2022-11-27T23:17:02.680Z,11.10
2022-11-27T23:19:31.147Z,10.60
2022-11-27T23:21:59.678Z,11.30
2022-11-27T23:24:28.261Z,10.90
2022-11-27T23:26:57.050Z,10.00
2022-11-27T23:29:25.427Z,12.30
2022-11-27T23:31:54.040Z,12.40
2022-11-27T23:34:22.590Z,12.50
2022-11-27T23:36:51.274Z,10.90
2022-11-27T23:39:19.858Z,12.60
2022-11-27T23:41:49.744Z,12.00
2022-11-27T23:44:18.559Z,11.10
2022-11-27T23:46:48.291Z,11.50
2022-11-27T23:49:16.851Z,12.80
2022-11-27T23:51:45.436Z,13.20
2022-11-27T23:54:14.461Z,13.80
2022-11-27T23:56:44.443Z,11.00
2022-11-27T23:59:12.946Z,12.50
